createdAt,value
2019-02-09T00:01:18.593Z,10.27
2019-02-09T00:03:46.721Z,8.93
2019-02-09T00:06:14.826Z,8.27
2019-02-09T00:08:42.948Z,8.40
2019-02-09T00:11:11.068Z,5.80
2019-02-09T00:13:39.186Z,6.63
2019-02-09T00:16:07.280Z,6.60
2019-02-09T00:18:35.479Z,7.20
2019-02-09T00:21:03.654Z,10.33
2019-02-09T00:23:31.806Z,7.77
2019-02-09T00:26:00.013Z,7.20
2019-02-09T00:28:40.290Z,6.03
2019-02-09T00:31:08.442Z,6.07
2019-02-09T00:33:36.605Z,8.10
2019-02-09T00:36:04.747Z,5.73
2019-02-09T00:38:32.870Z,6.27
2019-02-09T00:41:01.018Z,9.13
2019-02-09T00:43:29.222Z,6.07
2019-02-09T00:45:57.340Z,7.17
2019-02-09T00:48:25.491Z,8.47
2019-02-09T00:50:53.623Z,4.60
2019-02-09T00:53:21.744Z,6.83
2019-02-09T00:55:49.874Z,8.30
2019-02-09T00:58:19.595Z,10.43
2019-02-09T01:00:47.730Z,7.07
2019-02-09T01:03:15.888Z,12.37
2019-02-09T01:05:45.291Z,11.53
2019-02-09T01:08:13.576Z,7.23
2019-02-09T01:10:41.705Z,7.33
2019-02-09T01:13:09.866Z,5.10
2019-02-09T01:15:38.239Z,11.23
2019-02-09T01:18:06.385Z,6.77
2019-02-09T01:20:34.815Z,6.60
2019-02-09T01:23:05.779Z,6.87
2019-02-09T01:25:33.907Z,7.97
2019-02-09T01:28:02.042Z,9.57
2019-02-09T01:30:30.225Z,10.97
2019-02-09T01:32:58.400Z,12.87
2019-02-09T01:35:26.823Z,10.30
2019-02-09T01:37:55.037Z,6.13
2019-02-09T01:40:24.212Z,6.10
2019-02-09T01:42:52.509Z,6.83
2019-02-09T01:45:22.156Z,7.73
2019-02-09T01:47:50.325Z,6.80
2019-02-09T01:50:19.610Z,6.73
2019-02-09T01:52:47.739Z,7.70
2019-02-09T01:55:15.973Z,8.20
2019-02-09T01:57:44.093Z,7.03
2019-02-09T02:00:13.793Z,7.00
2019-02-09T02:02:41.953Z,5.53
2019-02-09T02:05:11.242Z,6.70
2019-02-09T02:07:39.478Z,5.30
2019-02-09T02:10:09.117Z,6.43
2019-02-09T02:12:37.225Z,7.83
2019-02-09T02:15:06.918Z,7.63
2019-02-09T02:17:35.070Z,8.43
2019-02-09T02:20:04.837Z,5.53
2019-02-09T02:22:33.016Z,7.00
2019-02-09T02:25:01.167Z,5.90
2019-02-09T02:27:29.260Z,8.30
2019-02-09T02:29:57.421Z,6.93
2019-02-09T02:32:25.565Z,7.03
2019-02-09T02:34:53.683Z,7.63
2019-02-09T02:37:21.793Z,8.07
2019-02-09T02:39:50.137Z,5.43
2019-02-09T02:42:18.310Z,7.40
2019-02-09T02:44:46.465Z,4.97
2019-02-09T02:47:14.608Z,5.57
2019-02-09T02:49:42.721Z,5.30
2019-02-09T02:52:10.897Z,8.43
2019-02-09T02:54:39.006Z,8.47
2019-02-09T02:57:07.132Z,6.87
2019-02-09T02:59:35.257Z,7.83
2019-02-09T03:02:03.595Z,10.67
2019-02-09T03:04:31.786Z,10.67
2019-02-09T03:06:59.943Z,5.57
2019-02-09T03:09:28.146Z,6.57
2019-02-09T03:11:56.305Z,5.40
2019-02-09T03:14:24.415Z,7.93
2019-02-09T03:16:52.576Z,7.37
2019-02-09T03:19:20.713Z,5.83
2019-02-09T03:21:48.817Z,9.03
2019-02-09T03:24:16.969Z,8.13
2019-02-09T03:26:45.103Z,6.30
2019-02-09T03:29:13.317Z,7.80
2019-02-09T03:31:41.430Z,7.27
2019-02-09T03:34:09.546Z,7.53
2019-02-09T03:36:37.747Z,7.83
2019-02-09T03:39:06.687Z,6.90
2019-02-09T03:41:34.906Z,8.07
2019-02-09T03:44:05.978Z,13.80
2019-02-09T03:46:34.155Z,2.93
2019-02-09T03:49:02.293Z,4.13
2019-02-09T03:51:30.482Z,9.43
2019-02-09T03:53:58.589Z,15.50
2019-02-09T03:56:53.701Z,7.77
2019-02-09T03:59:21.833Z,9.70
2019-02-09T04:01:49.993Z,8.93
2019-02-09T04:04:18.173Z,8.23
2019-02-09T04:06:46.322Z,6.07
2019-02-09T04:09:14.504Z,6.30
2019-02-09T04:11:42.619Z,6.33
2019-02-09T04:14:12.385Z,6.07
2019-02-09T04:16:44.039Z,3.23
2019-02-09T04:19:19.372Z,4.93
2019-02-09T04:21:47.507Z,7.90
2019-02-09T04:24:15.650Z,7.43
2019-02-09T04:26:43.824Z,7.53
2019-02-09T04:29:12.034Z,9.80
2019-02-09T04:31:40.149Z,8.60
2019-02-09T04:34:08.278Z,7.27
2019-02-09T04:36:36.505Z,3.90
2019-02-09T04:39:06.153Z,4.20
2019-02-09T04:41:34.285Z,2.37
2019-02-09T04:44:02.441Z,4.07
2019-02-09T04:46:30.638Z,3.53
2019-02-09T04:48:58.789Z,3.90
2019-02-09T04:51:26.936Z,5.93
2019-02-09T04:53:55.168Z,5.80
2019-02-09T04:59:04.899Z,7.53
2019-02-09T05:01:33.142Z,4.97
2019-02-09T05:04:01.331Z,5.67
2019-02-09T05:06:29.483Z,4.90
2019-02-09T05:08:57.781Z,4.07
2019-02-09T05:11:25.963Z,3.90
2019-02-09T05:13:54.099Z,3.90
2019-02-09T05:16:22.191Z,3.90
2019-02-09T05:18:50.405Z,3.67
2019-02-09T05:21:18.527Z,8.50
2019-02-09T05:23:46.653Z,6.07
2019-02-09T05:26:14.797Z,6.33
2019-02-09T05:28:42.949Z,4.70
2019-02-09T05:31:11.184Z,11.60
2019-02-09T05:33:39.435Z,5.70
2019-02-09T05:36:07.585Z,4.83
2019-02-09T05:38:35.722Z,5.33
2019-02-09T05:41:03.825Z,4.47
2019-02-09T05:43:31.964Z,4.13
2019-02-09T05:46:00.097Z,4.10
2019-02-09T05:48:28.278Z,3.57
2019-02-09T05:50:56.454Z,5.67
2019-02-09T05:53:24.569Z,5.83
2019-02-09T05:55:52.711Z,6.60
2019-02-09T05:58:20.856Z,5.70
2019-02-09T06:00:49.129Z,7.97
2019-02-09T06:03:17.260Z,9.37
2019-02-09T06:05:45.412Z,7.67
2019-02-09T06:08:13.550Z,3.07
2019-02-09T06:10:41.669Z,4.13
2019-02-09T06:13:09.835Z,4.70
2019-02-09T06:15:38.052Z,5.53
2019-02-09T06:18:06.231Z,2.87
2019-02-09T06:20:34.339Z,2.87
2019-02-09T06:23:02.513Z,5.73
2019-02-09T06:25:30.749Z,4.77
2019-02-09T06:27:58.951Z,5.53
2019-02-09T06:30:28.143Z,6.13
2019-02-09T06:32:56.457Z,4.00
2019-02-09T06:35:24.913Z,9.20
2019-02-09T06:37:53.110Z,3.03
2019-02-09T06:40:21.966Z,3.97
2019-02-09T06:42:50.094Z,4.97
2019-02-09T06:45:19.173Z,4.17
2019-02-09T06:47:47.301Z,5.07
2019-02-09T06:50:19.812Z,5.80
2019-02-09T06:52:47.932Z,7.53
2019-02-09T06:55:16.345Z,8.80
2019-02-09T06:57:44.501Z,4.27
2019-02-09T07:00:17.201Z,5.83
2019-02-09T07:02:45.372Z,6.80
2019-02-09T07:05:14.574Z,9.07
2019-02-09T07:07:42.868Z,4.50
2019-02-09T07:10:12.509Z,3.93
2019-02-09T07:12:40.665Z,4.13
2019-02-09T07:15:10.385Z,5.30
2019-02-09T07:17:38.512Z,4.27
2019-02-09T07:20:08.409Z,4.03
2019-02-09T07:22:36.562Z,8.83
2019-02-09T07:25:06.261Z,6.20
2019-02-09T07:27:34.445Z,7.80
2019-02-09T07:30:02.556Z,8.13
2019-02-09T07:32:30.828Z,5.78
2019-02-09T07:34:59.061Z,9.37
2019-02-09T07:37:27.258Z,4.80
2019-02-09T07:39:55.409Z,4.80
2019-02-09T07:42:23.593Z,6.10
2019-02-09T07:44:51.743Z,6.83
2019-02-09T07:47:19.965Z,8.60
2019-02-09T07:49:48.072Z,6.37
2019-02-09T07:52:16.227Z,7.23
2019-02-09T07:54:44.468Z,5.90
2019-02-09T07:57:12.630Z,6.23
2019-02-09T07:59:40.756Z,11.30
2019-02-09T08:02:08.918Z,6.83
2019-02-09T08:04:37.113Z,5.03
2019-02-09T08:07:05.272Z,2.47
2019-02-09T08:09:33.488Z,7.60
2019-02-09T08:12:01.629Z,4.60
2019-02-09T08:14:29.849Z,7.03
2019-02-09T08:16:57.977Z,6.33
2019-02-09T08:19:26.129Z,3.40
2019-02-09T08:21:54.262Z,5.13
2019-02-09T08:24:22.464Z,8.63
2019-02-09T08:26:50.581Z,12.03
2019-02-09T08:29:18.768Z,6.47
2019-02-09T08:31:46.952Z,5.07
2019-02-09T08:34:15.087Z,8.63
2019-02-09T08:36:43.190Z,3.20
2019-02-09T08:39:11.308Z,6.03
2019-02-09T08:41:39.482Z,3.80
2019-02-09T08:44:07.605Z,5.77
2019-02-09T08:46:35.700Z,6.43
2019-02-09T08:49:04.001Z,5.47
2019-02-09T08:51:32.152Z,4.37
2019-02-09T08:54:00.274Z,8.67
2019-02-09T08:56:28.438Z,5.47
2019-02-09T08:58:56.555Z,6.27
2019-02-09T09:01:24.666Z,4.83
2019-02-09T09:03:52.818Z,6.17
2019-02-09T09:06:21.022Z,5.67
2019-02-09T09:08:49.211Z,4.50
2019-02-09T09:11:17.354Z,4.53
2019-02-09T09:13:45.546Z,5.63
2019-02-09T09:16:13.765Z,4.13
2019-02-09T09:18:41.902Z,2.53
2019-02-09T09:21:10.131Z,11.90
2019-02-09T09:23:38.240Z,6.50
2019-02-09T09:26:06.438Z,6.73
2019-02-09T09:28:34.611Z,7.23
2019-02-09T09:31:02.804Z,7.20
2019-02-09T09:33:30.936Z,7.40
2019-02-09T09:35:59.076Z,5.63
2019-02-09T09:38:27.235Z,3.23
2019-02-09T09:40:55.448Z,3.77
2019-02-09T09:43:23.665Z,4.77
2019-02-09T09:45:51.918Z,4.33
2019-02-09T09:48:20.879Z,4.70
2019-02-09T09:50:49.019Z,2.50
2019-02-09T09:53:17.539Z,8.13
2019-02-09T09:55:45.760Z,14.03
2019-02-09T09:58:13.860Z,8.53
2019-02-09T10:00:41.984Z,10.63
2019-02-09T10:03:10.167Z,8.30
2019-02-09T10:05:38.311Z,15.63
2019-02-09T10:08:06.822Z,7.33
2019-02-09T10:10:35.097Z,5.20
2019-02-09T10:13:03.257Z,3.33
2019-02-09T10:15:31.434Z,4.00
2019-02-09T10:17:59.666Z,7.50
2019-02-09T10:20:28.405Z,8.80
2019-02-09T10:22:56.833Z,5.63
2019-02-09T10:25:25.037Z,6.50
2019-02-09T10:27:54.535Z,5.60
2019-02-09T10:30:27.032Z,6.13
2019-02-09T10:32:55.148Z,4.33
2019-02-09T10:35:23.475Z,9.33
2019-02-09T10:37:51.819Z,5.20
2019-02-09T10:40:21.509Z,2.60
2019-02-09T10:42:49.645Z,6.13
2019-02-09T10:45:19.426Z,8.07
2019-02-09T10:47:47.581Z,3.47
2019-02-09T10:50:17.362Z,5.10
2019-02-09T10:52:45.521Z,10.40
2019-02-09T10:55:13.722Z,8.40
2019-02-09T10:57:41.890Z,4.57
2019-02-09T11:00:12.065Z,6.10
2019-02-09T11:02:40.260Z,3.77
2019-02-09T11:05:09.273Z,9.13
2019-02-09T11:07:37.423Z,4.60
2019-02-09T11:10:07.086Z,18.03
2019-02-09T11:12:35.192Z,7.57
2019-02-09T11:15:04.718Z,7.47
2019-02-09T11:17:33.482Z,4.28
2019-02-09T11:20:01.631Z,8.03
2019-02-09T11:22:29.768Z,10.27
2019-02-09T11:24:57.902Z,8.87
2019-02-09T11:27:26.017Z,8.23
2019-02-09T11:29:54.183Z,8.37
2019-02-09T11:32:22.318Z,7.33
2019-02-09T11:34:50.514Z,4.90
2019-02-09T11:37:18.667Z,4.40
2019-02-09T11:39:46.840Z,4.07
2019-02-09T11:42:14.985Z,3.10
2019-02-09T11:44:43.173Z,4.73
2019-02-09T11:47:11.363Z,4.30
2019-02-09T11:49:39.540Z,3.17
2019-02-09T11:52:07.922Z,7.80
2019-02-09T11:54:36.122Z,3.63
2019-02-09T11:57:04.224Z,4.83
2019-02-09T11:59:32.378Z,5.87
2019-02-09T12:02:01.002Z,6.40
2019-02-09T12:04:29.259Z,4.33
2019-02-09T12:06:57.377Z,3.40
2019-02-09T12:09:25.525Z,2.30
2019-02-09T12:11:53.682Z,2.87
2019-02-09T12:14:21.901Z,1.93
2019-02-09T12:16:50.052Z,4.33
2019-02-09T12:19:18.301Z,4.13
2019-02-09T12:21:46.481Z,7.03
2019-02-09T12:24:14.620Z,1.90
2019-02-09T12:26:42.760Z,2.57
2019-02-09T12:29:10.942Z,6.43
2019-02-09T12:31:39.142Z,3.67
2019-02-09T12:34:07.334Z,5.30
2019-02-09T12:36:35.456Z,3.00
2019-02-09T12:39:05.122Z,1.87
2019-02-09T12:41:33.301Z,2.83
2019-02-09T12:44:01.408Z,4.47
2019-02-09T12:46:29.524Z,4.00
2019-02-09T12:48:57.673Z,1.90
2019-02-09T12:51:26.221Z,8.40
2019-02-09T12:53:54.377Z,6.10
2019-02-09T12:56:22.472Z,9.23
2019-02-09T12:58:50.603Z,6.30
2019-02-09T13:01:18.811Z,5.97
2019-02-09T13:03:46.925Z,5.10
2019-02-09T13:06:15.038Z,3.43
2019-02-09T13:08:43.153Z,4.03
2019-02-09T13:11:11.286Z,2.37
2019-02-09T13:13:39.438Z,2.37
2019-02-09T13:16:07.551Z,3.47
2019-02-09T13:18:35.711Z,3.73
2019-02-09T13:21:04.430Z,2.90
2019-02-09T13:23:32.639Z,12.20
2019-02-09T13:26:00.749Z,4.40
2019-02-09T13:28:28.918Z,10.20
2019-02-09T13:30:57.026Z,4.33
2019-02-09T13:33:25.173Z,7.83
2019-02-09T13:35:53.384Z,7.00
2019-02-09T13:38:21.512Z,4.03
2019-02-09T13:40:49.677Z,1.83
2019-02-09T13:43:17.789Z,5.00
2019-02-09T13:45:47.375Z,2.20
2019-02-09T13:48:15.672Z,4.03
2019-02-09T13:50:44.070Z,3.70
2019-02-09T13:53:12.227Z,2.47
2019-02-09T13:55:40.403Z,10.43
2019-02-09T13:58:08.619Z,5.73
2019-02-09T14:00:36.995Z,7.57
2019-02-09T14:03:06.291Z,7.60
2019-02-09T14:05:34.533Z,10.07
2019-02-09T14:08:02.711Z,5.37
2019-02-09T14:10:30.837Z,2.97
2019-02-09T14:12:58.977Z,3.40
2019-02-09T14:15:28.655Z,5.03
2019-02-09T14:17:57.551Z,5.63
2019-02-09T14:23:11.988Z,6.03
2019-02-09T14:25:40.167Z,6.50
2019-02-09T14:28:08.294Z,2.23
2019-02-09T14:30:37.201Z,5.37
2019-02-09T14:33:06.709Z,6.57
2019-02-09T14:35:35.307Z,5.73
2019-02-09T14:38:04.192Z,4.83
2019-02-09T14:40:33.067Z,4.80
2019-02-09T14:45:39.431Z,2.27
2019-02-09T14:48:07.557Z,2.50
2019-02-09T14:50:35.825Z,3.03
2019-02-09T14:53:04.624Z,6.93
2019-02-09T14:55:34.030Z,6.33
2019-02-09T14:58:02.195Z,5.90
2019-02-09T15:00:31.748Z,7.70
2019-02-09T15:02:59.997Z,7.07
2019-02-09T15:05:28.176Z,5.90
2019-02-09T15:07:56.297Z,4.83
2019-02-09T15:10:24.421Z,3.10
2019-02-09T15:12:52.579Z,5.70
2019-02-09T15:15:22.626Z,10.67
2019-02-09T15:17:50.788Z,3.60
2019-02-09T15:20:36.015Z,3.23
2019-02-09T15:23:04.573Z,5.20
2019-02-09T15:25:32.902Z,8.03
2019-02-09T15:28:01.121Z,5.57
2019-02-09T15:30:30.251Z,9.77
2019-02-09T15:32:58.474Z,10.17
2019-02-09T15:35:26.648Z,6.40
2019-02-09T15:37:54.879Z,4.43
2019-02-09T15:40:23.125Z,9.87
2019-02-09T15:42:51.304Z,1.83
2019-02-09T15:45:20.806Z,3.77
2019-02-09T15:47:53.276Z,4.37
2019-02-09T15:50:21.519Z,8.00
2019-02-09T15:52:50.166Z,10.23
2019-02-09T15:55:21.860Z,6.93
2019-02-09T15:57:50.136Z,11.37
2019-02-09T16:00:19.884Z,10.80
2019-02-09T16:02:51.426Z,4.40
2019-02-09T16:05:19.715Z,7.00
2019-02-09T16:07:47.924Z,4.80
2019-02-09T16:10:17.495Z,16.77
2019-02-09T16:12:45.630Z,61.43
2019-02-09T16:15:18.229Z,113.90
2019-02-09T16:17:46.626Z,40.47
2019-02-09T16:20:16.130Z,36.63
2019-02-09T16:22:44.319Z,18.23
2019-02-09T16:25:12.601Z,21.03
2019-02-09T16:27:40.747Z,15.87
2019-02-09T16:30:18.616Z,15.37
2019-02-09T16:32:46.211Z,12.43
2019-02-09T16:35:15.342Z,8.40
2019-02-09T16:37:43.550Z,8.00
2019-02-09T16:40:13.259Z,7.10
2019-02-09T16:42:41.528Z,3.63
2019-02-09T16:45:11.244Z,9.67
2019-02-09T16:47:40.169Z,5.47
2019-02-09T16:50:10.087Z,11.03
2019-02-09T16:52:38.320Z,13.43
2019-02-09T16:55:08.104Z,9.37
2019-02-09T16:57:36.240Z,14.60
2019-02-09T17:00:17.730Z,25.50
2019-02-09T17:02:46.004Z,14.17
2019-02-09T17:05:14.384Z,8.27
2019-02-09T17:07:42.628Z,11.27
2019-02-09T17:10:12.609Z,7.90
2019-02-09T17:12:40.746Z,6.47
2019-02-09T17:15:10.528Z,5.77
2019-02-09T17:17:38.776Z,5.80
2019-02-09T17:20:08.648Z,8.90
2019-02-09T17:22:36.858Z,6.93
2019-02-09T17:25:06.376Z,14.43
2019-02-09T17:27:34.570Z,10.47
2019-02-09T17:30:02.731Z,12.37
2019-02-09T17:32:30.927Z,11.23
2019-02-09T17:34:59.110Z,9.10
2019-02-09T17:37:27.297Z,3.87
2019-02-09T17:39:55.434Z,5.23
2019-02-09T17:42:23.576Z,7.13
2019-02-09T17:44:51.684Z,6.37
2019-02-09T17:47:19.853Z,5.00
2019-02-09T17:49:48.018Z,1.77
2019-02-09T17:52:16.252Z,4.53
2019-02-09T17:54:44.356Z,6.13
2019-02-09T17:57:12.521Z,7.43
2019-02-09T17:59:40.740Z,9.93
2019-02-09T18:02:08.880Z,6.07
2019-02-09T18:04:37.005Z,5.20
2019-02-09T18:07:05.151Z,5.10
2019-02-09T18:09:33.331Z,5.43
2019-02-09T18:12:01.449Z,6.83
2019-02-09T18:14:29.688Z,8.50
2019-02-09T18:16:57.858Z,6.33
2019-02-09T18:19:25.960Z,6.63
2019-02-09T18:21:54.088Z,7.40
2019-02-09T18:24:22.232Z,8.23
2019-02-09T18:26:50.373Z,6.97
2019-02-09T18:29:18.583Z,12.10
2019-02-09T18:31:46.786Z,6.33
2019-02-09T18:34:14.932Z,7.70
2019-02-09T18:36:43.091Z,4.03
2019-02-09T18:39:11.541Z,7.87
2019-02-09T18:41:39.663Z,6.13
2019-02-09T18:44:07.979Z,6.97
2019-02-09T18:46:36.138Z,5.37
2019-02-09T18:49:04.321Z,4.07
2019-02-09T18:51:32.594Z,7.37
2019-02-09T18:54:00.881Z,6.77
2019-02-09T18:56:29.109Z,12.57
2019-02-09T18:58:57.442Z,7.50
2019-02-09T19:01:25.606Z,10.70
2019-02-09T19:03:53.805Z,10.50
2019-02-09T19:06:21.928Z,7.90
2019-02-09T19:08:50.121Z,6.20
2019-02-09T19:11:18.424Z,6.57
2019-02-09T19:13:46.654Z,8.23
2019-02-09T19:16:14.886Z,7.70
2019-02-09T19:18:43.129Z,7.37
2019-02-09T19:21:11.283Z,6.17
2019-02-09T19:23:39.432Z,8.10
2019-02-09T19:26:07.564Z,7.47
2019-02-09T19:28:35.677Z,7.63
2019-02-09T19:31:03.835Z,10.37
2019-02-09T19:33:32.067Z,10.47
2019-02-09T19:36:00.254Z,7.47
2019-02-09T19:38:28.372Z,7.80
2019-02-09T19:40:56.520Z,6.87
2019-02-09T19:43:24.650Z,13.50
2019-02-09T19:45:52.774Z,9.60
2019-02-09T19:48:20.948Z,10.73
2019-02-09T19:50:49.093Z,6.43
2019-02-09T19:53:17.278Z,15.33
2019-02-09T19:55:45.438Z,7.80
2019-02-09T19:58:13.581Z,7.20
2019-02-09T20:00:45.623Z,15.37
2019-02-09T20:03:13.753Z,11.03
2019-02-09T20:05:41.958Z,9.10
2019-02-09T20:08:10.238Z,6.37
2019-02-09T20:10:45.239Z,3.70
2019-02-09T20:13:13.896Z,4.43
2019-02-09T20:15:42.039Z,21.13
2019-02-09T20:18:10.535Z,7.90
2019-02-09T20:20:46.518Z,7.87
2019-02-09T20:23:08.558Z,12.50
2019-02-09T20:25:36.697Z,7.80
2019-02-09T20:28:05.186Z,9.47
2019-02-09T20:30:40.796Z,8.70
2019-02-09T20:33:09.080Z,4.30
2019-02-09T20:35:38.367Z,10.83
2019-02-09T20:38:07.777Z,7.07
2019-02-09T20:40:37.196Z,5.37
2019-02-09T20:43:06.378Z,7.23
2019-02-09T20:45:34.662Z,3.00
2019-02-09T20:48:02.793Z,6.20
2019-02-09T20:50:30.906Z,5.13
2019-02-09T20:52:59.022Z,11.90
2019-02-09T20:55:28.011Z,12.10
2019-02-09T20:57:56.153Z,8.07
2019-02-09T21:00:47.725Z,9.33
2019-02-09T21:03:15.853Z,9.17
2019-02-09T21:05:43.981Z,10.43
2019-02-09T21:08:12.222Z,6.13
2019-02-09T21:10:41.405Z,4.63
2019-02-09T21:13:09.521Z,8.23
2019-02-09T21:15:37.654Z,5.50
2019-02-09T21:18:08.769Z,4.77
2019-02-09T21:20:36.912Z,5.57
2019-02-09T21:23:05.433Z,4.93
2019-02-09T21:25:37.776Z,5.37
2019-02-09T21:28:05.949Z,7.97
2019-02-09T21:30:34.060Z,5.97
2019-02-09T21:33:02.230Z,6.93
2019-02-09T21:35:30.637Z,9.90
2019-02-09T21:37:58.925Z,7.60
2019-02-09T21:40:27.996Z,10.63
2019-02-09T21:42:56.133Z,7.03
2019-02-09T21:45:24.741Z,4.77
2019-02-09T21:47:52.930Z,5.27
2019-02-09T21:50:22.631Z,4.43
2019-02-09T21:52:50.892Z,8.27
2019-02-09T21:55:19.904Z,11.60
2019-02-09T21:57:48.012Z,16.10
2019-02-09T22:00:17.690Z,10.07
2019-02-09T22:02:45.819Z,15.20
2019-02-09T22:05:14.004Z,12.03
2019-02-09T22:07:42.196Z,8.53
2019-02-09T22:10:11.903Z,9.97
2019-02-09T22:12:40.058Z,5.07
2019-02-09T22:15:10.243Z,7.07
2019-02-09T22:17:38.496Z,9.43
2019-02-09T22:20:11.094Z,9.37
2019-02-09T22:22:39.272Z,10.23
2019-02-09T22:25:08.959Z,7.03
2019-02-09T22:27:37.832Z,7.43
2019-02-09T22:30:07.594Z,17.60
2019-02-09T22:32:35.872Z,9.33
2019-02-09T22:35:05.756Z,12.60
2019-02-09T22:37:33.957Z,6.10
2019-02-09T22:40:02.747Z,7.00
2019-02-09T22:42:31.076Z,10.67
2019-02-09T22:44:59.320Z,7.33
2019-02-09T22:47:27.480Z,5.63
2019-02-09T22:52:43.009Z,4.77
2019-02-09T22:55:12.883Z,7.00
2019-02-09T22:57:41.018Z,12.53
2019-02-09T23:00:16.658Z,9.37
2019-02-09T23:02:45.517Z,9.50
2019-02-09T23:05:15.329Z,9.23
2019-02-09T23:07:44.010Z,5.93
2019-02-09T23:10:12.349Z,5.57
2019-02-09T23:12:48.173Z,4.73
2019-02-09T23:15:10.764Z,6.70
2019-02-09T23:17:38.910Z,6.10
2019-02-09T23:20:08.222Z,6.43
2019-02-09T23:22:36.385Z,9.37
2019-02-09T23:25:05.072Z,9.10
2019-02-09T23:27:33.284Z,9.67
2019-02-09T23:30:01.445Z,10.43
2019-02-09T23:32:29.657Z,10.53
2019-02-09T23:34:57.857Z,8.40
2019-02-09T23:37:26.238Z,4.40
2019-02-09T23:39:54.389Z,4.80
2019-02-09T23:42:22.626Z,5.47
2019-02-09T23:44:50.829Z,8.93
2019-02-09T23:47:19.034Z,4.70
2019-02-09T23:49:47.295Z,6.10
2019-02-09T23:52:15.449Z,7.87
2019-02-09T23:54:43.660Z,9.63
2019-02-09T23:57:11.806Z,6.97
2019-02-09T23:59:39.901Z,8.17
